Time;durP1;ratioP1;P1;durP2;ratioP2;P2;SDS_P1;SDS_P2;PMS_P1;PMS_P2;Temp;Humidity;BMP_temperature;BMP_pressure;BME280_temperature;BME280_humidity;BME280_pressure;Samples;Min_cycle;Max_cycle;Signal;HPM_P1;HPM_P2
2022/09/07 00:01:59;;;;;;;;;;;20.50;99.90;;;;;;5094290;28;19908;-62
2022/09/07 00:04:25;;;;;;;;;;;20.50;99.90;;;;;;5094033;28;20281;-62
2022/09/07 00:06:50;;;;;;;;;;;20.60;99.90;;;;;;5094300;28;19962;-63
2022/09/07 00:09:16;;;;;;;;;;;20.50;99.90;;;;;;5093974;28;19908;-64
2022/09/07 00:11:41;;;;;;;;;;;20.50;99.90;;;;;;5094179;28;19912;-62
2022/09/07 00:14:06;;;;;;;;;;;20.50;99.90;;;;;;5094219;28;19909;-63
2022/09/07 00:16:32;;;;;;;;;;;20.50;99.90;;;;;;5094206;28;20422;-63
2022/09/07 00:18:59;;;;;;;;;;;20.50;99.90;;;;;;5094108;28;19908;-63
2022/09/07 00:21:25;;;;;;;;;;;20.60;99.90;;;;;;5093866;28;19963;-63
2022/09/07 00:23:51;;;;;;;;;;;20.60;99.90;;;;;;5093787;28;19918;-63
2022/09/07 00:26:19;;;;;;;;;;;20.60;99.90;;;;;;5093868;28;20470;-63
2022/09/07 00:28:45;;;;;;;;;;;20.70;99.90;;;;;;5094014;28;19958;-63
2022/09/07 00:31:12;;;;;;;;;;;20.80;99.90;;;;;;5093599;28;19939;-62
2022/09/07 00:33:37;;;;;;;;;;;20.80;99.90;;;;;;5093694;28;19914;-63
2022/09/07 00:36:03;;;;;;;;;;;20.70;99.90;;;;;;5093734;28;20002;-64
2022/09/07 00:38:28;;;;;;;;;;;21.10;99.90;;;;;;5093895;28;19908;-63
2022/09/07 00:40:54;;;;;;;;;;;21.00;99.90;;;;;;5075945;28;20331;-61
2022/09/07 00:46:14;;;;;;;;;;;20.00;99.90;;;;;;5071040;28;20294;-63
2022/09/07 00:48:44;;;;;;;;;;;19.60;99.90;;;;;;5070942;28;19912;-62
2022/09/07 00:51:12;;;;;;;;;;;19.40;99.90;;;;;;5070882;28;19909;-62
2022/09/07 00:53:40;;;;;;;;;;;19.30;99.90;;;;;;5071128;28;20420;-63
2022/09/07 00:56:06;;;;;;;;;;;19.00;99.90;;;;;;5071034;28;19999;-62
2022/09/07 00:58:33;;;;;;;;;;;18.90;99.90;;;;;;5071004;28;19915;-62
2022/09/07 01:00:58;;;;;;;;;;;18.80;99.90;;;;;;5070696;28;19958;-62
2022/09/07 01:03:26;;;;;;;;;;;18.90;99.90;;;;;;5070752;28;19917;-62
2022/09/07 01:05:55;;;;;;;;;;;18.90;99.90;;;;;;5070514;28;19913;-62
2022/09/07 01:08:22;;;;;;;;;;;19.00;99.90;;;;;;5070825;28;19931;-62
2022/09/07 01:10:47;;;;;;;;;;;18.90;99.90;;;;;;5070491;28;20318;-62
2022/09/07 01:13:14;;;;;;;;;;;19.00;99.90;;;;;;5070753;28;19909;-62
2022/09/07 01:15:45;;;;;;;;;;;18.90;99.90;;;;;;5070694;28;19916;-62
2022/09/07 01:18:18;;;;;;;;;;;18.90;99.90;;;;;;5070641;28;19999;-62
2022/09/07 01:21:04;;;;;;;;;;;18.90;99.90;;;;;;5070569;28;19912;-62
2022/09/07 01:23:38;;;;;;;;;;;18.90;99.90;;;;;;5070347;28;19909;-62
2022/09/07 01:26:23;;;;;;;;;;;18.90;99.90;;;;;;5070214;28;19912;-61
2022/09/07 01:28:54;;;;;;;;;;;18.80;99.90;;;;;;5070125;28;19909;-62
2022/09/07 01:31:31;;;;;;;;;;;18.90;99.90;;;;;;5070104;28;19959;-62
2022/09/07 01:34:03;;;;;;;;;;;18.90;99.90;;;;;;5070302;28;20302;-62
2022/09/07 01:36:32;;;;;;;;;;;18.80;99.90;;;;;;5070241;28;19938;-62
2022/09/07 01:39:00;;;;;;;;;;;18.80;99.90;;;;;;5070200;28;19917;-62
2022/09/07 01:41:45;;;;;;;;;;;18.80;99.90;;;;;;5070107;28;19909;-62
2022/09/07 01:44:20;;;;;;;;;;;18.80;99.90;;;;;;5073237;28;19921;-62
2022/09/07 01:47:06;;;;;;;;;;;18.70;99.90;;;;;;5090274;28;19908;-63
2022/09/07 01:49:35;;;;;;;;;;;18.70;99.90;;;;;;5089847;28;19909;-62
2022/09/07 01:52:03;;;;;;;;;;;18.60;99.90;;;;;;5090222;28;20003;-62
2022/09/07 01:54:32;;;;;;;;;;;18.60;99.90;;;;;;5090149;28;20386;-62
2022/09/07 01:57:01;;;;;;;;;;;18.60;99.90;;;;;;5079841;28;19908;-62
2022/09/07 01:59:30;;;;;;;;;;;18.60;99.90;;;;;;5076268;28;19908;-62
2022/09/07 02:01:59;;;;;;;;;;;18.70;99.90;;;;;;5076530;28;19958;-62
2022/09/07 02:04:35;;;;;;;;;;;18.60;99.90;;;;;;5076173;28;19913;-62
2022/09/07 02:07:07;;;;;;;;;;;18.60;99.90;;;;;;5076417;28;19930;-62
2022/09/07 02:09:40;;;;;;;;;;;18.50;99.90;;;;;;5076389;28;19908;-63
2022/09/07 02:12:12;;;;;;;;;;;18.50;99.90;;;;;;5058212;28;20328;-62
2022/09/07 02:14:39;;;;;;;;;;;18.40;99.90;;;;;;5076348;28;19909;-62
2022/09/07 02:17:16;;;;;;;;;;;18.40;99.90;;;;;;5076005;28;19916;-62
2022/09/07 02:19:45;;;;;;;;;;;18.40;99.90;;;;;;5076249;28;19958;-62
2022/09/07 02:22:13;;;;;;;;;;;18.40;99.90;;;;;;5076198;28;20279;-62
2022/09/07 02:24:40;;;;;;;;;;;18.40;99.90;;;;;;5076049;28;19922;-63
2022/09/07 02:27:11;;;;;;;;;;;18.40;99.90;;;;;;5057949;28;20305;-62
2022/09/07 02:29:37;;;;;;;;;;;18.30;99.90;;;;;;5076023;28;19909;-62
2022/09/07 02:32:03;;;;;;;;;;;18.30;99.90;;;;;;5076006;28;19909;-63
2022/09/07 02:34:28;;;;;;;;;;;18.30;99.90;;;;;;5075951;28;19908;-61
2022/09/07 02:36:54;;;;;;;;;;;18.20;99.90;;;;;;5075609;28;19913;-62
2022/09/07 02:39:20;;;;;;;;;;;18.10;99.90;;;;;;5075886;28;20412;-61
2022/09/07 02:41:45;;;;;;;;;;;18.10;99.90;;;;;;5057604;28;19912;-61
2022/09/07 02:44:14;;;;;;;;;;;18.00;99.90;;;;;;5054261;28;19975;-62
2022/09/07 02:47:00;;;;;;;;;;;17.90;99.90;;;;;;5055714;28;19909;-62
2022/09/07 02:49:32;;;;;;;;;;;17.80;99.90;;;;;;5055348;28;19956;-62
2022/09/07 02:52:08;;;;;;;;;;;17.80;99.90;;;;;;5055361;28;19916;-61
2022/09/07 02:54:54;;;;;;;;;;;17.70;99.90;;;;;;5055567;28;19970;-62
2022/09/07 02:57:25;;;;;;;;;;;17.70;99.90;;;;;;5055241;28;20008;-62
2022/09/07 02:59:57;;;;;;;;;;;17.60;99.90;;;;;;5055134;28;19909;-62
2022/09/07 03:02:29;;;;;;;;;;;17.70;99.90;;;;;;5055162;28;19909;-62
2022/09/07 03:05:15;;;;;;;;;;;17.70;99.90;;;;;;5055007;28;19916;-62
2022/09/07 03:07:45;;;;;;;;;;;17.60;99.90;;;;;;5066959;28;19960;-63
2022/09/07 03:10:13;;;;;;;;;;;17.60;99.90;;;;;;5055087;28;19909;-62
2022/09/07 03:12:40;;;;;;;;;;;17.60;99.90;;;;;;5054896;28;19908;-62
2022/09/07 03:15:06;;;;;;;;;;;17.50;99.90;;;;;;5055170;28;19909;-61
2022/09/07 03:17:31;;;;;;;;;;;17.50;99.90;;;;;;5055124;28;19916;-62
2022/09/07 03:19:57;;;;;;;;;;;17.40;99.90;;;;;;5054795;28;19956;-62
2022/09/07 03:22:22;;;;;;;;;;;17.40;99.90;;;;;;5054678;28;19913;-62
2022/09/07 03:24:47;;;;;;;;;;;17.30;99.90;;;;;;5054886;28;19912;-62
2022/09/07 03:27:13;;;;;;;;;;;17.30;99.90;;;;;;5054949;28;19908;-62
2022/09/07 03:29:38;;;;;;;;;;;17.20;99.90;;;;;;5054877;28;19988;-62
2022/09/07 03:32:04;;;;;;;;;;;17.20;99.90;;;;;;5054799;28;19913;-62
2022/09/07 03:34:30;;;;;;;;;;;17.20;99.90;;;;;;5054830;28;20328;-62
2022/09/07 03:36:55;;;;;;;;;;;17.10;99.90;;;;;;5054760;28;20279;-62
2022/09/07 03:39:22;;;;;;;;;;;17.20;99.90;;;;;;5054429;28;20310;-62
2022/09/07 03:41:48;;;;;;;;;;;17.20;99.90;;;;;;5054371;28;19909;-62
2022/09/07 03:44:14;;;;;;;;;;;17.20;99.90;;;;;;5058153;28;19926;-63
2022/09/07 03:46:39;;;;;;;;;;;17.20;99.90;;;;;;5074344;28;20007;-62
2022/09/07 03:49:05;;;;;;;;;;;17.30;99.90;;;;;;5074159;28;19962;-62
2022/09/07 03:51:30;;;;;;;;;;;17.20;99.90;;;;;;5074437;28;19909;-62
2022/09/07 03:53:56;;;;;;;;;;;17.20;99.90;;;;;;5074133;28;20283;-62
2022/09/07 03:56:23;;;;;;;;;;;17.20;99.90;;;;;;5074351;28;19915;-62
2022/09/07 03:58:49;;;;;;;;;;;17.10;99.90;;;;;;5074347;28;20385;-62
2022/09/07 04:01:15;;;;;;;;;;;17.20;99.90;;;;;;5074285;28;20428;-62
2022/09/07 04:03:41;;;;;;;;;;;17.10;99.90;;;;;;5056062;28;19916;-62
2022/09/07 04:06:07;;;;;;;;;;;17.00;99.90;;;;;;5073959;28;19914;-62
2022/09/07 04:08:33;;;;;;;;;;;;;;;;;;5074217;28;19915;-62
2022/09/07 04:10:59;;;;;;;;;;;17.00;99.90;;;;;;5073933;28;19926;-61
2022/09/07 04:13:26;;;;;;;;;;;17.00;99.90;;;;;;5074152;28;19936;-61
2022/09/07 04:15:51;;;;;;;;;;;17.00;99.90;;;;;;5074108;28;19959;-62
2022/09/07 04:18:17;;;;;;;;;;;16.90;99.90;;;;;;5074020;28;19908;-61
2022/09/07 04:20:42;;;;;;;;;;;16.80;99.90;;;;;;5073574;28;19999;-62
2022/09/07 04:23:08;;;;;;;;;;;16.80;99.90;;;;;;5073980;28;19908;-62
2022/09/07 04:25:33;;;;;;;;;;;16.80;99.90;;;;;;5055618;28;19913;-62
2022/09/07 04:27:59;;;;;;;;;;;16.80;99.90;;;;;;5073967;28;19908;-62
2022/09/07 04:30:25;;;;;;;;;;;16.70;99.90;;;;;;5073641;28;20057;-62
2022/09/07 04:32:50;;;;;;;;;;;16.70;99.90;;;;;;5073927;28;19908;-62
2022/09/07 04:35:16;;;;;;;;;;;16.70;99.90;;;;;;5073560;28;19909;-62
2022/09/07 04:37:41;;;;;;;;;;;16.70;99.90;;;;;;5073843;28;19909;-62
2022/09/07 04:40:07;;;;;;;;;;;16.60;99.90;;;;;;5073785;28;19932;-62
2022/09/07 04:42:33;;;;;;;;;;;16.60;99.90;;;;;;5073772;28;19908;-62
2022/09/07 04:44:58;;;;;;;;;;;16.60;99.90;;;;;;5073336;28;20302;-62
2022/09/07 04:47:24;;;;;;;;;;;16.60;99.90;;;;;;5073454;28;19918;-62
2022/09/07 04:49:50;;;;;;;;;;;16.60;99.90;;;;;;5073716;28;20018;-62
2022/09/07 04:52:16;;;;;;;;;;;16.50;99.90;;;;;;5073637;28;19912;-62
2022/09/07 04:54:42;;;;;;;;;;;16.50;99.90;;;;;;5073653;28;20391;-62
2022/09/07 04:57:08;;;;;;;;;;;16.40;99.90;;;;;;5073604;28;19992;-61
2022/09/07 04:59:34;;;;;;;;;;;16.40;99.90;;;;;;5073627;28;20367;-62
2022/09/07 05:01:59;;;;;;;;;;;16.40;99.90;;;;;;5073461;28;19915;-62
2022/09/07 05:04:25;;;;;;;;;;;16.40;99.90;;;;;;5073473;28;19912;-62
2022/09/07 05:06:51;;;;;;;;;;;16.40;99.90;;;;;;5073247;28;19962;-62
2022/09/07 05:09:17;;;;;;;;;;;16.30;99.90;;;;;;5073217;28;19908;-63
2022/09/07 05:11:42;;;;;;;;;;;16.30;99.90;;;;;;5073537;28;19912;-62
2022/09/07 05:14:08;;;;;;;;;;;16.40;99.90;;;;;;5073492;28;19936;-62
2022/09/07 05:16:34;;;;;;;;;;;16.40;99.90;;;;;;5055107;28;20287;-62
2022/09/07 05:19:01;;;;;;;;;;;16.50;99.90;;;;;;5073044;28;19908;-62
2022/09/07 05:21:28;;;;;;;;;;;16.50;99.90;;;;;;5073075;28;19955;-62
2022/09/07 05:23:55;;;;;;;;;;;16.50;99.90;;;;;;5073397;28;19940;-62
2022/09/07 05:26:22;;;;;;;;;;;16.50;99.90;;;;;;5073274;28;19912;-62
2022/09/07 05:28:48;;;;;;;;;;;16.50;99.90;;;;;;5073290;28;20339;-62
2022/09/07 05:31:16;;;;;;;;;;;16.60;99.90;;;;;;5074185;28;19991;-62
2022/09/07 05:33:45;;;;;;;;;;;16.70;99.90;;;;;;5058945;28;19908;-62
2022/09/07 05:36:10;;;;;;;;;;;16.80;99.90;;;;;;5077016;28;20334;-62
2022/09/07 05:38:36;;;;;;;;;;;16.80;99.90;;;;;;5058864;28;19947;-62
2022/09/07 05:41:19;;;;;;;;;;;16.90;99.90;;;;;;5076943;28;20278;-63
2022/09/07 05:43:44;;;;;;;;;;;17.00;99.90;;;;;;5076796;28;19916;-62
2022/09/07 05:46:13;;;;;;;;;;;17.20;99.90;;;;;;5076258;28;20367;-62
2022/09/07 05:48:38;;;;;;;;;;;17.40;99.90;;;;;;5076755;28;20286;-62
2022/09/07 05:51:04;;;;;;;;;;;17.60;99.90;;;;;;5076316;28;19916;-62
2022/09/07 05:53:30;;;;;;;;;;;17.80;99.90;;;;;;5076392;28;19909;-62
2022/09/07 05:55:57;;;;;;;;;;;18.20;99.90;;;;;;5072664;28;20127;-62
2022/09/07 05:58:23;;;;;;;;;;;18.40;99.90;;;;;;5076548;28;19915;-62
2022/09/07 06:00:48;;;;;;;;;;;18.90;99.90;;;;;;5075933;28;19909;-62
2022/09/07 06:03:14;;;;;;;;;;;19.10;99.90;;;;;;5075122;28;19961;-62
2022/09/07 06:05:39;;;;;;;;;;;19.20;99.90;;;;;;5074156;28;19912;-63
2022/09/07 06:08:05;;;;;;;;;;;19.30;99.90;;;;;;5075645;28;19915;-62
2022/09/07 06:10:34;;;;;;;;;;;19.60;99.90;;;;;;5075411;28;19912;-62
2022/09/07 06:13:00;;;;;;;;;;;19.60;99.90;;;;;;5075334;28;19912;-62
2022/09/07 06:15:25;;;;;;;;;;;19.70;99.90;;;;;;5075622;28;19935;-62
2022/09/07 06:17:52;;;;;;;;;;;20.00;99.90;;;;;;5057584;28;19951;-62
2022/09/07 06:20:17;;;;;;;;;;;19.90;99.90;;;;;;5075697;28;20397;-62
2022/09/07 06:22:43;;;;;;;;;;;20.00;99.90;;;;;;5075452;28;19944;-63
2022/09/07 06:25:08;;;;;;;;;;;20.50;99.90;;;;;;5075069;28;19912;-62
2022/09/07 06:27:34;;;;;;;;;;;21.50;99.90;;;;;;5057553;28;19999;-63
2022/09/07 06:29:59;;;;;;;;;;;22.40;99.90;;;;;;5075325;28;19909;-63
2022/09/07 06:32:25;;;;;;;;;;;23.10;99.90;;;;;;5075576;28;20285;-62
2022/09/07 06:34:50;;;;;;;;;;;23.60;99.90;;;;;;5075676;28;19916;-64
2022/09/07 06:37:16;;;;;;;;;;;24.50;99.90;;;;;;5075534;28;20275;-63
2022/09/07 06:39:42;;;;;;;;;;;24.60;99.90;;;;;;5074999;28;19916;-63
2022/09/07 06:42:07;;;;;;;;;;;24.90;99.90;;;;;;5075254;28;20406;-64
2022/09/07 06:44:33;;;;;;;;;;;24.70;99.90;;;;;;5074636;28;19920;-63
2022/09/07 06:46:58;;;;;;;;;;;24.60;99.90;;;;;;5075164;28;19912;-63
2022/09/07 06:49:24;;;;;;;;;;;24.40;99.90;;;;;;5075448;28;19921;-64
2022/09/07 06:51:50;;;;;;;;;;;24.10;99.90;;;;;;5057204;28;19912;-63
2022/09/07 06:54:16;;;;;;;;;;;24.10;99.90;;;;;;5074517;28;19974;-63
2022/09/07 06:56:41;;;;;;;;;;;24.50;99.90;;;;;;5075393;28;19940;-63
2022/09/07 06:59:07;;;;;;;;;;;23.90;99.90;;;;;;5075337;28;19966;-63
2022/09/07 07:01:32;;;;;;;;;;;24.60;99.90;;;;;;5056908;28;19929;-64
2022/09/07 07:03:58;;;;;;;;;;;25.00;99.90;;;;;;5057062;28;20003;-63
2022/09/07 07:06:31;;;;;;;;;;;25.30;99.90;;;;;;5074190;28;19916;-63
2022/09/07 07:08:57;;;;;;;;;;;25.40;99.90;;;;;;5074992;28;20343;-63
2022/09/07 07:11:22;;;;;;;;;;;26.00;99.90;;;;;;5074612;28;19909;-63
2022/09/07 07:13:48;;;;;;;;;;;26.70;99.90;;;;;;5074183;28;20349;-64
2022/09/07 07:16:15;;;;;;;;;;;26.50;99.90;;;;;;5074462;28;20019;-62
2022/09/07 07:18:41;;;;;;;;;;;27.20;99.90;;;;;;5074341;28;20359;-62
2022/09/07 07:21:07;;;;;;;;;;;27.90;99.90;;;;;;5074383;28;20429;-62
2022/09/07 07:23:33;;;;;;;;;;;28.30;99.90;;;;;;5074832;28;19908;-62
2022/09/07 07:26:01;;;;;;;;;;;27.70;99.90;;;;;;5056159;28;20062;-62
2022/09/07 07:28:26;;;;;;;;;;;27.10;99.90;;;;;;5074680;28;19912;-62
2022/09/07 07:30:54;;;;;;;;;;;26.00;99.90;;;;;;5074298;28;19916;-62
2022/09/07 07:33:20;;;;;;;;;;;25.50;99.90;;;;;;5074576;28;20003;-63
2022/09/07 07:35:45;;;;;;;;;;;25.00;99.90;;;;;;5073938;28;19944;-62
2022/09/07 07:38:11;;;;;;;;;;;25.00;99.90;;;;;;5074320;28;19919;-62
2022/09/07 07:40:36;;;;;;;;;;;24.90;99.90;;;;;;5073100;28;20397;-63
2022/09/07 07:43:02;;;;;;;;;;;24.80;99.90;;;;;;5074169;28;19913;-62
2022/09/07 07:45:27;;;;;;;;;;;24.10;99.90;;;;;;5054864;28;19921;-62
2022/09/07 07:47:53;;;;;;;;;;;24.80;99.90;;;;;;5074076;28;19912;-62
2022/09/07 07:50:18;;;;;;;;;;;25.10;99.90;;;;;;5073667;28;19935;-62
2022/09/07 07:52:44;;;;;;;;;;;25.50;99.90;;;;;;5074033;28;19913;-62
2022/09/07 07:55:09;;;;;;;;;;;25.90;99.90;;;;;;5073726;28;19908;-62
2022/09/07 07:57:35;;;;;;;;;;;25.60;99.90;;;;;;5073850;28;20278;-63
2022/09/07 08:00:00;;;;;;;;;;;25.50;99.90;;;;;;5073403;28;20541;-63
2022/09/07 08:02:26;;;;;;;;;;;25.30;99.90;;;;;;5074071;28;19909;-62
2022/09/07 08:04:51;;;;;;;;;;;24.40;99.90;;;;;;5073671;28;19913;-62
2022/09/07 08:07:18;;;;;;;;;;;23.90;99.90;;;;;;5074078;28;19958;-62
2022/09/07 08:09:45;;;;;;;;;;;23.50;99.90;;;;;;5073278;28;19935;-62
2022/09/07 08:12:12;;;;;;;;;;;23.20;99.90;;;;;;5073959;28;19959;-64
2022/09/07 08:14:39;;;;;;;;;;;23.40;99.90;;;;;;5073264;28;19912;-64
2022/09/07 08:17:05;;;;;;;;;;;23.30;99.90;;;;;;5073959;28;19912;-64
2022/09/07 08:19:32;;;;;;;;;;;24.00;99.90;;;;;;5073306;28;19912;-64
2022/09/07 08:21:57;;;;;;;;;;;24.40;99.90;;;;;;5073304;28;19956;-64
2022/09/07 08:24:23;;;;;;;;;;;24.20;99.90;;;;;;5073035;28;20383;-64
2022/09/07 08:26:49;;;;;;;;;;;23.30;99.90;;;;;;5073547;28;19938;-63
2022/09/07 08:29:14;;;;;;;;;;;23.10;99.90;;;;;;5073393;28;19939;-63
2022/09/07 08:31:40;;;;;;;;;;;22.80;99.90;;;;;;5073342;28;19919;-64
2022/09/07 08:34:06;;;;;;;;;;;23.10;99.90;;;;;;5073101;28;20415;-65
2022/09/07 08:36:32;;;;;;;;;;;23.60;99.90;;;;;;5072787;28;20367;-64
2022/09/07 08:38:58;;;;;;;;;;;24.40;99.90;;;;;;5073537;28;19915;-64
2022/09/07 08:44:24;;;;;;;;;;;24.40;99.90;;;;;;5070817;28;19912;-65
2022/09/07 08:47:01;;;;;;;;;;;24.40;99.90;;;;;;5050594;28;20394;-65
2022/09/07 08:49:45;;;;;;;;;;;24.00;99.90;;;;;;5052093;28;19916;-65
2022/09/07 08:52:17;;;;;;;;;;;23.10;99.90;;;;;;5070592;28;19919;-65
2022/09/07 08:54:45;;;;;;;;;;;22.70;99.90;;;;;;5070481;28;19909;-65
2022/09/07 08:57:24;;;;;;;;;;;22.90;99.90;;;;;;5070819;28;20286;-65
2022/09/07 08:59:56;;;;;;;;;;;23.10;99.90;;;;;;5070229;28;20291;-65
2022/09/07 09:02:24;;;;;;;;;;;22.80;99.90;;;;;;5070345;28;19967;-65
2022/09/07 09:04:49;;;;;;;;;;;22.50;99.90;;;;;;5069861;28;19915;-65
2022/09/07 09:07:34;;;;;;;;;;;22.60;99.90;;;;;;5070370;28;19921;-65
2022/09/07 09:10:07;;;;;;;;;;;22.50;99.90;;;;;;5070115;28;19934;-65
2022/09/07 09:12:45;;;;;;;;;;;22.60;99.90;;;;;;5069687;28;20042;-65
2022/09/07 09:15:20;;;;;;;;;;;22.80;99.90;;;;;;5070077;28;20328;-65
2022/09/07 09:17:51;;;;;;;;;;;22.80;99.90;;;;;;5069873;28;20244;-65
2022/09/07 09:20:27;;;;;;;;;;;22.50;99.90;;;;;;5069119;28;20411;-65
2022/09/07 09:22:55;;;;;;;;;;;22.40;99.90;;;;;;5069272;28;20382;-65
2022/09/07 09:25:25;;;;;;;;;;;22.50;99.90;;;;;;5069533;28;19912;-65
2022/09/07 09:27:51;;;;;;;;;;;22.40;99.90;;;;;;5069755;28;20271;-65
2022/09/07 09:30:19;;;;;;;;;;;22.30;99.90;;;;;;5069734;28;19917;-65
2022/09/07 09:32:45;;;;;;;;;;;22.30;99.90;;;;;;5069606;28;19908;-65
2022/09/07 09:35:14;;;;;;;;;;;22.10;99.90;;;;;;5069469;28;19913;-65
2022/09/07 09:37:40;;;;;;;;;;;22.20;99.90;;;;;;5069450;28;19913;-65
2022/09/07 09:40:17;;;;;;;;;;;22.40;99.90;;;;;;5069518;28;19952;-65
2022/09/07 09:42:43;;;;;;;;;;;22.40;99.90;;;;;;5078832;28;20356;-65
2022/09/07 09:45:13;;;;;;;;;;;22.50;99.90;;;;;;5089631;28;19913;-65
2022/09/07 09:47:38;;;;;;;;;;;22.60;99.90;;;;;;5089689;28;19919;-65
2022/09/07 09:50:06;;;;;;;;;;;22.30;99.90;;;;;;5089306;28;19909;-65
2022/09/07 09:52:34;;;;;;;;;;;22.70;99.90;;;;;;5089698;28;19912;-65
2022/09/07 09:55:00;;;;;;;;;;;23.10;99.90;;;;;;5078793;28;19951;-65
2022/09/07 09:57:45;;;;;;;;;;;23.60;99.90;;;;;;5075926;28;19963;-65
2022/09/07 10:00:14;;;;;;;;;;;23.60;99.90;;;;;;5075356;28;19912;-65
2022/09/07 10:02:40;;;;;;;;;;;23.80;99.90;;;;;;5075291;28;20003;-65
2022/09/07 10:05:26;;;;;;;;;;;23.60;99.90;;;;;;5075782;28;19973;-65
2022/09/07 10:07:51;;;;;;;;;;;23.40;99.90;;;;;;5075314;28;19999;-65
2022/09/07 10:10:17;;;;;;;;;;;23.40;99.90;;;;;;5075756;28;19947;-64
2022/09/07 10:12:44;;;;;;;;;;;23.50;99.90;;;;;;5074862;28;19918;-65
2022/09/07 10:15:27;;;;;;;;;;;24.20;99.90;;;;;;5075523;28;19909;-65
2022/09/07 10:17:53;;;;;;;;;;;25.10;99.90;;;;;;5057572;28;19908;-65
2022/09/07 10:22:59;;;;;;;;;;;27.30;99.90;;;;;;5132329;27;20262;-64
2022/09/07 10:25:35;;;;;;;;;;;27.50;99.90;;;;;;5131565;27;19918;-64
2022/09/07 10:30:55;;;;;;;;;;;28.00;99.90;;;;;;5070413;28;19913;-65
2022/09/07 10:33:41;;;;;;;;;;;27.80;99.90;;;;;;5077609;28;19920;-65
2022/09/07 10:36:14;;;;;;;;;;;28.30;99.90;;;;;;5050543;28;19967;-65
2022/09/07 10:38:45;;;;;;;;;;;28.90;99.90;;;;;;5062323;28;19919;-65
2022/09/07 10:41:11;;;;;;;;;;;28.60;99.90;;;;;;5068981;28;19913;-65
2022/09/07 10:43:51;;;;;;;;;;;28.20;99.90;;;;;;5063277;28;19945;-65
2022/09/07 10:46:36;;;;;;;;;;;27.80;99.90;;;;;;5050457;28;19962;-65
2022/09/07 10:49:20;;;;;;;;;;;27.60;99.90;;;;;;5050253;28;19921;-65
2022/09/07 10:52:06;;;;;;;;;;;26.40;99.90;;;;;;5048449;28;20376;-65
2022/09/07 10:54:52;;;;;;;;;;;26.20;99.90;;;;;;5030325;28;19913;-65
2022/09/07 10:57:38;;;;;;;;;;;26.20;99.90;;;;;;5059096;28;19919;-65
2022/09/07 11:00:10;;;;;;;;;;;25.90;99.90;;;;;;5035924;28;20395;-65
2022/09/07 11:02:43;;;;;;;;;;;25.60;99.90;;;;;;5061177;28;20566;-65
2022/09/07 11:05:09;;;;;;;;;;;;;;;;;;5080750;28;19913;-65
2022/09/07 11:07:54;;;;;;;;;;;25.10;99.90;;;;;;5055702;28;19936;-64
2022/09/07 11:10:39;;;;;;;;;;;25.30;99.90;;;;;;5069759;28;19974;-65
2022/09/07 11:13:08;;;;;;;;;;;25.50;99.90;;;;;;5030083;28;20449;-65
2022/09/07 11:15:37;;;;;;;;;;;25.80;99.90;;;;;;5067820;28;19952;-64
2022/09/07 11:18:22;;;;;;;;;;;25.20;99.90;;;;;;5038190;28;20303;-65
2022/09/07 11:20:54;;;;;;;;;;;25.40;99.90;;;;;;5044830;28;19966;-65
2022/09/07 11:23:23;;;;;;;;;;;25.90;99.90;;;;;;5039344;28;19912;-65
2022/09/07 11:25:56;;;;;;;;;;;26.00;99.90;;;;;;5047020;28;19909;-65
2022/09/07 11:28:25;;;;;;;;;;;26.00;99.90;;;;;;5043466;28;19913;-65
2022/09/07 11:30:56;;;;;;;;;;;25.50;99.90;;;;;;5053626;28;19909;-65
2022/09/07 11:33:26;;;;;;;;;;;25.30;99.90;;;;;;5069631;28;19916;-64
2022/09/07 11:35:57;;;;;;;;;;;25.60;99.90;;;;;;5074202;28;19912;-65
2022/09/07 11:38:24;;;;;;;;;;;25.80;99.90;;;;;;5073831;28;19919;-65
2022/09/07 11:41:10;;;;;;;;;;;25.60;99.90;;;;;;5045180;28;20286;-65
2022/09/07 11:43:40;;;;;;;;;;;25.40;99.90;;;;;;5051871;28;19920;-65
2022/09/07 11:46:09;;;;;;;;;;;25.10;99.90;;;;;;5050421;28;19956;-65
2022/09/07 11:48:39;;;;;;;;;;;24.90;99.90;;;;;;5036155;28;19909;-65
2022/09/07 11:51:12;;;;;;;;;;;24.70;99.90;;;;;;5051267;28;19935;-65
2022/09/07 11:53:42;;;;;;;;;;;24.50;99.90;;;;;;5052503;28;19917;-65
2022/09/07 11:56:27;;;;;;;;;;;24.20;99.90;;;;;;5063658;28;19975;-65
2022/09/07 11:59:07;;;;;;;;;;;23.90;99.90;;;;;;5064743;28;19909;-65
2022/09/07 12:01:43;;;;;;;;;;;23.90;99.90;;;;;;5039318;28;19948;-65
2022/09/07 12:09:49;;;;;;;;;;;24.30;99.90;;;;;;5068991;28;20405;-64
2022/09/07 12:12:21;;;;;;;;;;;25.20;99.90;;;;;;5065265;28;19912;-64
2022/09/07 12:14:50;;;;;;;;;;;26.10;99.90;;;;;;5067401;28;19917;-64
2022/09/07 12:17:25;;;;;;;;;;;26.50;99.90;;;;;;5063210;28;19917;-64
2022/09/07 12:20:11;;;;;;;;;;;26.30;99.90;;;;;;5068998;28;19916;-64
2022/09/07 12:22:36;;;;;;;;;;;26.40;99.90;;;;;;5069478;28;19913;-65
2022/09/07 12:25:07;;;;;;;;;;;26.10;99.90;;;;;;5068380;28;19912;-64
2022/09/07 12:35:32;;;;;;;;;;;24.90;99.90;;;;;;5089531;27;20390;-65
2022/09/07 12:38:00;;;;;;;;;;;24.70;99.90;;;;;;5070874;28;20000;-65
2022/09/07 12:40:31;;;;;;;;;;;25.20;99.90;;;;;;5070484;28;19908;-65
2022/09/07 12:45:50;;;;;;;;;;;25.20;99.90;;;;;;5069366;28;20413;-65
2022/09/07 12:51:15;;;;;;;;;;;25.50;99.90;;;;;;5089774;28;20366;-65
2022/09/07 12:54:00;;;;;;;;;;;25.50;99.90;;;;;;5088483;28;20370;-65
2022/09/07 12:56:46;;;;;;;;;;;25.70;99.90;;;;;;5069915;28;19923;-65
2022/09/07 12:59:31;;;;;;;;;;;25.60;99.90;;;;;;5088876;28;20370;-65
2022/09/07 13:02:17;;;;;;;;;;;25.70;99.90;;;;;;5088480;28;19912;-65
2022/09/07 13:07:45;;;;;;;;;;;25.70;99.90;;;;;;5136709;27;19921;-65
2022/09/07 13:10:30;;;;;;;;;;;25.80;99.90;;;;;;5148421;27;19911;-65
2022/09/07 13:13:00;;;;;;;;;;;25.80;99.90;;;;;;5130750;27;19955;-65
2022/09/07 13:15:36;;;;;;;;;;;26.00;99.90;;;;;;5126169;27;19912;-65
2022/09/07 13:18:02;;;;;;;;;;;26.00;99.90;;;;;;5136880;27;19935;-64
2022/09/07 13:20:30;;;;;;;;;;;26.10;99.90;;;;;;5145658;27;19916;-64
2022/09/07 13:23:07;;;;;;;;;;;26.20;99.90;;;;;;5130464;27;19916;-64
2022/09/07 13:28:30;;;;;;;;;;;26.40;99.90;;;;;;5070831;28;19919;-65
2022/09/07 13:31:03;;;;;;;;;;;26.50;99.90;;;;;;5068892;28;19912;-65
2022/09/07 13:36:15;;;;;;;;;;;26.00;99.90;;;;;;5090873;27;19930;-65
2022/09/07 13:38:41;;;;;;;;;;;26.20;99.90;;;;;;5066537;28;19942;-65
2022/09/07 13:41:11;;;;;;;;;;;25.80;99.90;;;;;;5082532;28;19912;-65
2022/09/07 13:43:37;;;;;;;;;;;25.70;99.90;;;;;;5076036;28;19913;-65
2022/09/07 13:46:10;;;;;;;;;;;25.80;99.90;;;;;;5084955;28;19912;-65
2022/09/07 13:48:40;;;;;;;;;;;26.00;99.90;;;;;;5078003;28;20421;-65
2022/09/07 13:51:16;;;;;;;;;;;26.10;99.90;;;;;;5075192;28;20397;-65
2022/09/07 13:53:45;;;;;;;;;;;26.30;99.90;;;;;;5072383;28;19956;-65
2022/09/07 13:58:51;;;;;;;;;;;26.60;99.90;;;;;;5046413;28;19928;-64
2022/09/07 14:01:19;;;;;;;;;;;26.40;99.90;;;;;;5048384;28;19996;-64
2022/09/07 14:03:46;;;;;;;;;;;26.00;99.90;;;;;;5046336;28;19913;-65
2022/09/07 14:09:02;;;;;;;;;;;26.10;99.90;;;;;;5155091;27;20408;-65
2022/09/07 14:11:37;;;;;;;;;;;26.20;99.90;;;;;;5150004;27;19919;-65
2022/09/07 14:14:07;;;;;;;;;;;26.00;99.90;;;;;;5150232;27;19915;-65
2022/09/07 14:16:33;;;;;;;;;;;26.20;99.90;;;;;;5150397;27;20385;-65
2022/09/07 14:18:59;;;;;;;;;;;26.20;99.90;;;;;;5148652;27;19915;-66
2022/09/07 14:21:25;;;;;;;;;;;26.10;99.90;;;;;;5124117;27;19968;-65
2022/09/07 14:23:50;;;;;;;;;;;26.10;99.90;;;;;;5151621;27;19954;-65
2022/09/07 14:26:17;;;;;;;;;;;26.00;99.90;;;;;;5149806;27;19917;-65
2022/09/07 14:28:44;;;;;;;;;;;25.80;99.90;;;;;;5151887;27;20340;-65
2022/09/07 14:31:13;;;;;;;;;;;25.80;99.90;;;;;;5144535;27;19911;-65
2022/09/07 14:33:41;;;;;;;;;;;25.90;99.90;;;;;;5147036;27;19916;-65
2022/09/07 14:36:07;;;;;;;;;;;26.10;99.90;;;;;;5149506;27;19958;-65
2022/09/07 14:38:34;;;;;;;;;;;26.20;99.90;;;;;;5148332;27;19912;-65
2022/09/07 14:41:01;;;;;;;;;;;26.20;99.90;;;;;;5150856;27;19911;-65
2022/09/07 14:43:29;;;;;;;;;;;26.00;99.90;;;;;;5143028;27;19919;-65
2022/09/07 14:46:14;;;;;;;;;;;26.00;99.90;;;;;;5149323;27;20404;-65
2022/09/07 14:48:41;;;;;;;;;;;25.60;99.90;;;;;;5156479;27;20297;-65
2022/09/07 14:51:07;;;;;;;;;;;25.60;99.90;;;;;;5141471;27;19943;-65
2022/09/07 14:53:32;;;;;;;;;;;25.60;99.90;;;;;;5151678;27;20343;-64
2022/09/07 14:56:00;;;;;;;;;;;25.30;99.90;;;;;;5149954;27;19987;-64
2022/09/07 14:58:29;;;;;;;;;;;25.30;99.90;;;;;;5150905;27;19943;-64
2022/09/07 15:01:14;;;;;;;;;;;25.40;99.90;;;;;;5137115;27;19927;-64
2022/09/07 15:06:36;;;;;;;;;;;25.30;99.90;;;;;;5068243;28;19917;-65
2022/09/07 15:09:02;;;;;;;;;;;25.10;99.90;;;;;;5065794;28;19913;-65
2022/09/07 15:11:29;;;;;;;;;;;25.00;99.90;;;;;;5058072;28;19913;-65
2022/09/07 15:13:56;;;;;;;;;;;24.90;99.90;;;;;;5052823;28;19967;-65
2022/09/07 15:16:23;;;;;;;;;;;24.90;99.90;;;;;;5050370;28;19919;-65
2022/09/07 15:18:53;;;;;;;;;;;25.00;99.90;;;;;;5048313;28;19968;-65